sensor_id;sensor_type;location;lat;lon;timestamp;temperature;humidity
1411;DHT22;700;51.906;8.404;2023-04-15T00:03:33;10.30;99.90
1411;DHT22;700;51.906;8.404;2023-04-15T00:08:33;10.30;99.90
1411;DHT22;700;51.906;8.404;2023-04-15T00:13:34;10.20;99.90
1411;DHT22;700;51.906;8.404;2023-04-15T00:18:35;10.20;99.90
1411;DHT22;700;51.906;8.404;2023-04-15T00:23:38;10.10;99.90
1411;DHT22;700;51.906;8.404;2023-04-15T00:28:38;10.10;99.90
1411;DHT22;700;51.906;8.404;2023-04-15T00:33:41;10.00;99.90
1411;DHT22;700;51.906;8.404;2023-04-15T00:38:42;9.90;99.90
1411;DHT22;700;51.906;8.404;2023-04-15T00:43:42;10.00;99.90
1411;DHT22;700;51.906;8.404;2023-04-15T00:48:46;10.00;99.90
1411;DHT22;700;51.906;8.404;2023-04-15T00:53:49;9.90;99.90
1411;DHT22;700;51.906;8.404;2023-04-15T00:58:51;9.80;99.90
1411;DHT22;700;51.906;8.404;2023-04-15T01:03:52;9.80;99.90
1411;DHT22;700;51.906;8.404;2023-04-15T01:08:56;9.70;99.90
1411;DHT22;700;51.906;8.404;2023-04-15T01:13:59;9.70;99.90
1411;DHT22;700;51.906;8.404;2023-04-15T01:19:05;9.80;99.90
1411;DHT22;700;51.906;8.404;2023-04-15T01:24:10;9.80;99.90
1411;DHT22;700;51.906;8.404;2023-04-15T01:29:11;9.60;99.90
1411;DHT22;700;51.906;8.404;2023-04-15T01:34:11;9.50;99.90
1411;DHT22;700;51.906;8.404;2023-04-15T01:39:14;9.50;99.90
1411;DHT22;700;51.906;8.404;2023-04-15T01:44:17;9.70;99.90
1411;DHT22;700;51.906;8.404;2023-04-15T01:49:20;9.70;99.90
1411;DHT22;700;51.906;8.404;2023-04-15T01:54:21;9.70;99.90
1411;DHT22;700;51.906;8.404;2023-04-15T01:59:22;9.40;99.90
1411;DHT22;700;51.906;8.404;2023-04-15T02:04:25;9.40;99.90
1411;DHT22;700;51.906;8.404;2023-04-15T02:09:31;9.50;99.90
1411;DHT22;700;51.906;8.404;2023-04-15T02:14:31;9.50;99.90
1411;DHT22;700;51.906;8.404;2023-04-15T02:19:34;9.40;99.90
1411;DHT22;700;51.906;8.404;2023-04-15T02:24:37;9.30;99.90
1411;DHT22;700;51.906;8.404;2023-04-15T02:29:43;9.30;99.90
1411;DHT22;700;51.906;8.404;2023-04-15T02:34:47;9.20;99.90
1411;DHT22;700;51.906;8.404;2023-04-15T02:39:47;9.00;99.90
1411;DHT22;700;51.906;8.404;2023-04-15T02:44:49;9.10;99.90
1411;DHT22;700;51.906;8.404;2023-04-15T02:49:49;9.10;99.90
1411;DHT22;700;51.906;8.404;2023-04-15T02:54:52;9.10;99.90
1411;DHT22;700;51.906;8.404;2023-04-15T02:59:57;9.00;99.90
1411;DHT22;700;51.906;8.404;2023-04-15T03:04:57;8.90;99.90
1411;DHT22;700;51.906;8.404;2023-04-15T03:09:58;8.90;99.90
1411;DHT22;700;51.906;8.404;2023-04-15T03:15:00;8.80;99.90
1411;DHT22;700;51.906;8.404;2023-04-15T03:20:04;8.70;99.90
1411;DHT22;700;51.906;8.404;2023-04-15T03:25:06;8.80;99.90
1411;DHT22;700;51.906;8.404;2023-04-15T03:30:07;8.60;99.90
1411;DHT22;700;51.906;8.404;2023-04-15T03:35:10;8.60;99.90
1411;DHT22;700;51.906;8.404;2023-04-15T03:40:12;8.60;99.90
1411;DHT22;700;51.906;8.404;2023-04-15T03:45:12;8.50;99.90
1411;DHT22;700;51.906;8.404;2023-04-15T03:50:13;8.50;99.90
1411;DHT22;700;51.906;8.404;2023-04-15T03:55:13;8.50;99.90
1411;DHT22;700;51.906;8.404;2023-04-15T04:00:15;8.50;99.90
1411;DHT22;700;51.906;8.404;2023-04-15T04:05:16;8.60;99.90
1411;DHT22;700;51.906;8.404;2023-04-15T04:10:16;8.70;99.90
1411;DHT22;700;51.906;8.404;2023-04-15T04:15:18;8.60;99.90
1411;DHT22;700;51.906;8.404;2023-04-15T04:20:21;8.70;99.90
1411;DHT22;700;51.906;8.404;2023-04-15T04:25:21;8.70;99.90
1411;DHT22;700;51.906;8.404;2023-04-15T04:30:22;8.60;99.90
1411;DHT22;700;51.906;8.404;2023-04-15T04:35:23;8.60;99.90
1411;DHT22;700;51.906;8.404;2023-04-15T04:40:26;8.70;99.90
1411;DHT22;700;51.906;8.404;2023-04-15T04:45:29;8.80;99.90
1411;DHT22;700;51.906;8.404;2023-04-15T04:50:29;8.90;99.90
1411;DHT22;700;51.906;8.404;2023-04-15T04:55:30;9.10;99.90
1411;DHT22;700;51.906;8.404;2023-04-15T05:00:38;9.40;99.90
1411;DHT22;700;51.906;8.404;2023-04-15T05:05:39;9.40;99.90
1411;DHT22;700;51.906;8.404;2023-04-15T05:10:42;9.50;99.90
1411;DHT22;700;51.906;8.404;2023-04-15T05:15:43;9.60;99.90
1411;DHT22;700;51.906;8.404;2023-04-15T05:20:44;9.80;99.90
1411;DHT22;700;51.906;8.404;2023-04-15T05:25:45;9.80;99.90
1411;DHT22;700;51.906;8.404;2023-04-15T05:30:50;10.00;99.90
1411;DHT22;700;51.906;8.404;2023-04-15T05:35:53;10.10;99.90
1411;DHT22;700;51.906;8.404;2023-04-15T05:40:54;10.30;99.90
1411;DHT22;700;51.906;8.404;2023-04-15T05:45:55;10.40;99.90
1411;DHT22;700;51.906;8.404;2023-04-15T05:50:56;10.50;99.90
1411;DHT22;700;51.906;8.404;2023-04-15T05:55:57;10.70;99.90
1411;DHT22;700;51.906;8.404;2023-04-15T06:00:58;10.90;99.90
1411;DHT22;700;51.906;8.404;2023-04-15T06:06:00;11.00;99.90
1411;DHT22;700;51.906;8.404;2023-04-15T06:11:01;11.20;99.90
1411;DHT22;700;51.906;8.404;2023-04-15T06:16:02;11.30;99.90
1411;DHT22;700;51.906;8.404;2023-04-15T06:21:03;11.50;99.90
1411;DHT22;700;51.906;8.404;2023-04-15T06:26:04;11.60;99.90
1411;DHT22;700;51.906;8.404;2023-04-15T06:31:07;11.80;99.90
1411;DHT22;700;51.906;8.404;2023-04-15T06:36:07;12.00;99.90
1411;DHT22;700;51.906;8.404;2023-04-15T06:41:08;12.10;99.90
1411;DHT22;700;51.906;8.404;2023-04-15T06:46:09;12.30;99.90
1411;DHT22;700;51.906;8.404;2023-04-15T06:51:10;12.60;99.90
1411;DHT22;700;51.906;8.404;2023-04-15T06:56:13;12.80;99.90
1411;DHT22;700;51.906;8.404;2023-04-15T07:01:16;12.90;99.90
1411;DHT22;700;51.906;8.404;2023-04-15T07:06:17;12.90;99.90
1411;DHT22;700;51.906;8.404;2023-04-15T07:11:21;12.60;99.90
1411;DHT22;700;51.906;8.404;2023-04-15T07:16:22;12.80;99.90
1411;DHT22;700;51.906;8.404;2023-04-15T07:21:27;12.80;99.90
1411;DHT22;700;51.906;8.404;2023-04-15T07:26:31;12.90;99.90
1411;DHT22;700;51.906;8.404;2023-04-15T07:31:31;12.90;99.90
1411;DHT22;700;51.906;8.404;2023-04-15T07:36:35;12.90;99.90
1411;DHT22;700;51.906;8.404;2023-04-15T07:41:36;12.70;99.90
1411;DHT22;700;51.906;8.404;2023-04-15T07:46:36;13.10;99.90
1411;DHT22;700;51.906;8.404;2023-04-15T07:51:39;13.20;99.90
1411;DHT22;700;51.906;8.404;2023-04-15T07:56:40;13.10;99.90
1411;DHT22;700;51.906;8.404;2023-04-15T08:01:45;12.70;99.90
1411;DHT22;700;51.906;8.404;2023-04-15T08:06:49;12.90;99.90
1411;DHT22;700;51.906;8.404;2023-04-15T08:11:55;13.00;99.90
1411;DHT22;700;51.906;8.404;2023-04-15T08:16:56;12.90;99.90
1411;DHT22;700;51.906;8.404;2023-04-15T08:21:57;13.10;99.90
1411;DHT22;700;51.906;8.404;2023-04-15T08:26:57;13.00;99.90
1411;DHT22;700;51.906;8.404;2023-04-15T08:31:59;12.90;99.90
1411;DHT22;700;51.906;8.404;2023-04-15T08:37:03;13.00;99.90
1411;DHT22;700;51.906;8.404;2023-04-15T08:42:10;13.10;99.90
1411;DHT22;700;51.906;8.404;2023-04-15T08:47:12;13.00;99.90
1411;DHT22;700;51.906;8.404;2023-04-15T08:52:14;13.00;99.90
1411;DHT22;700;51.906;8.404;2023-04-15T08:57:18;13.00;99.90
1411;DHT22;700;51.906;8.404;2023-04-15T09:02:19;13.10;99.90
1411;DHT22;700;51.906;8.404;2023-04-15T09:07:20;13.30;99.90
1411;DHT22;700;51.906;8.404;2023-04-15T09:12:21;13.30;99.90
1411;DHT22;700;51.906;8.404;2023-04-15T09:17:24;13.20;99.90
1411;DHT22;700;51.906;8.404;2023-04-15T09:22:31;13.20;99.90
1411;DHT22;700;51.906;8.404;2023-04-15T09:27:38;13.50;99.90
1411;DHT22;700;51.906;8.404;2023-04-15T09:38:06;13.70;99.90
1411;DHT22;700;51.906;8.404;2023-04-15T09:43:08;13.60;99.90
1411;DHT22;700;51.906;8.404;2023-04-15T09:53:20;13.70;99.90
1411;DHT22;700;51.906;8.404;2023-04-15T09:58:25;13.80;99.90
1411;DHT22;700;51.906;8.404;2023-04-15T10:03:30;13.70;99.90
1411;DHT22;700;51.906;8.404;2023-04-15T10:08:32;13.60;99.90
1411;DHT22;700;51.906;8.404;2023-04-15T10:13:36;13.50;99.90
1411;DHT22;700;51.906;8.404;2023-04-15T10:18:41;13.60;99.90
1411;DHT22;700;51.906;8.404;2023-04-15T10:23:44;13.50;99.90
1411;DHT22;700;51.906;8.404;2023-04-15T10:28:48;13.30;99.90
1411;DHT22;700;51.906;8.404;2023-04-15T10:33:49;13.20;99.90
1411;DHT22;700;51.906;8.404;2023-04-15T10:38:53;13.40;99.90
1411;DHT22;700;51.906;8.404;2023-04-15T10:44:04;13.50;99.90
1411;DHT22;700;51.906;8.404;2023-04-15T10:49:08;13.50;99.90
1411;DHT22;700;51.906;8.404;2023-04-15T10:59:28;13.40;99.90
1411;DHT22;700;51.906;8.404;2023-04-15T11:04:55;13.40;99.90
1411;DHT22;700;51.906;8.404;2023-04-15T11:09:59;13.30;99.90
1411;DHT22;700;51.906;8.404;2023-04-15T11:15:26;13.10;99.90
1411;DHT22;700;51.906;8.404;2023-04-15T11:20:28;12.90;99.90
1411;DHT22;700;51.906;8.404;2023-04-15T11:25:32;12.90;99.90
1411;DHT22;700;51.906;8.404;2023-04-15T11:30:34;12.70;99.90
1411;DHT22;700;51.906;8.404;2023-04-15T11:35:40;12.80;99.90
1411;DHT22;700;51.906;8.404;2023-04-15T11:40:43;12.80;99.90
1411;DHT22;700;51.906;8.404;2023-04-15T11:45:51;12.80;99.90
1411;DHT22;700;51.906;8.404;2023-04-15T11:50:59;12.80;99.90
1411;DHT22;700;51.906;8.404;2023-04-15T11:56:00;12.80;99.90
1411;DHT22;700;51.906;8.404;2023-04-15T12:01:01;12.80;99.90
1411;DHT22;700;51.906;8.404;2023-04-15T12:11:11;13.00;99.90
1411;DHT22;700;51.906;8.404;2023-04-15T12:16:12;13.00;99.90
1411;DHT22;700;51.906;8.404;2023-04-15T12:21:22;13.00;99.90
1411;DHT22;700;51.906;8.404;2023-04-15T12:31:27;12.80;99.90
1411;DHT22;700;51.906;8.404;2023-04-15T12:36:29;13.00;99.90
1411;DHT22;700;51.906;8.404;2023-04-15T12:41:38;13.10;99.90
1411;DHT22;700;51.906;8.404;2023-04-15T12:46:38;13.10;99.90
1411;DHT22;700;51.906;8.404;2023-04-15T12:51:41;13.10;99.90
1411;DHT22;700;51.906;8.404;2023-04-15T12:56:45;13.00;99.90
1411;DHT22;700;51.906;8.404;2023-04-15T13:01:49;13.10;99.90
1411;DHT22;700;51.906;8.404;2023-04-15T13:06:51;13.00;99.90
1411;DHT22;700;51.906;8.404;2023-04-15T13:11:52;12.80;99.90
1411;DHT22;700;51.906;8.404;2023-04-15T13:16:55;12.90;99.90
1411;DHT22;700;51.906;8.404;2023-04-15T13:21:56;12.90;99.90
1411;DHT22;700;51.906;8.404;2023-04-15T13:26:56;12.80;99.90
1411;DHT22;700;51.906;8.404;2023-04-15T13:31:58;12.90;99.90
1411;DHT22;700;51.906;8.404;2023-04-15T13:37:07;12.80;99.90
1411;DHT22;700;51.906;8.404;2023-04-15T13:42:08;12.80;99.90
1411;DHT22;700;51.906;8.404;2023-04-15T13:47:09;12.80;99.90
1411;DHT22;700;51.906;8.404;2023-04-15T13:52:10;12.80;99.90
1411;DHT22;700;51.906;8.404;2023-04-15T13:57:11;12.80;99.90
1411;DHT22;700;51.906;8.404;2023-04-15T14:02:16;12.90;99.90
1411;DHT22;700;51.906;8.404;2023-04-15T14:07:17;12.70;99.90
1411;DHT22;700;51.906;8.404;2023-04-15T14:12:17;12.80;99.90
1411;DHT22;700;51.906;8.404;2023-04-15T14:17:18;12.90;99.90
1411;DHT22;700;51.906;8.404;2023-04-15T14:22:18;12.90;99.90
1411;DHT22;700;51.906;8.404;2023-04-15T14:27:19;12.90;99.90
1411;DHT22;700;51.906;8.404;2023-04-15T14:32:23;12.90;99.90
1411;DHT22;700;51.906;8.404;2023-04-15T14:37:26;12.80;99.90
1411;DHT22;700;51.906;8.404;2023-04-15T14:42:27;12.80;99.90
1411;DHT22;700;51.906;8.404;2023-04-15T14:47:32;12.80;99.90
1411;DHT22;700;51.906;8.404;2023-04-15T14:52:33;12.70;99.90
1411;DHT22;700;51.906;8.404;2023-04-15T14:57:41;12.70;99.90
1411;DHT22;700;51.906;8.404;2023-04-15T15:02:44;12.70;99.90
1411;DHT22;700;51.906;8.404;2023-04-15T15:07:48;12.90;99.90
1411;DHT22;700;51.906;8.404;2023-04-15T15:12:49;12.80;99.90
1411;DHT22;700;51.906;8.404;2023-04-15T15:17:50;12.80;99.90
1411;DHT22;700;51.906;8.404;2023-04-15T15:22:50;12.70;99.90
1411;DHT22;700;51.906;8.404;2023-04-15T15:27:51;12.80;99.90
1411;DHT22;700;51.906;8.404;2023-04-15T15:32:56;12.80;99.90
1411;DHT22;700;51.906;8.404;2023-04-15T15:37:58;12.80;99.90
1411;DHT22;700;51.906;8.404;2023-04-15T15:42:59;12.80;99.90
1411;DHT22;700;51.906;8.404;2023-04-15T15:48:03;12.80;99.90
1411;DHT22;700;51.906;8.404;2023-04-15T15:53:06;12.70;99.90
1411;DHT22;700;51.906;8.404;2023-04-15T15:58:07;12.80;99.90
1411;DHT22;700;51.906;8.404;2023-04-15T16:03:10;12.90;99.90
1411;DHT22;700;51.906;8.404;2023-04-15T16:08:10;12.90;99.90
1411;DHT22;700;51.906;8.404;2023-04-15T16:13:11;12.80;99.90
1411;DHT22;700;51.906;8.404;2023-04-15T16:18:15;12.80;99.90
1411;DHT22;700;51.906;8.404;2023-04-15T16:23:15;12.90;99.90
1411;DHT22;700;51.906;8.404;2023-04-15T16:28:19;12.90;99.90
1411;DHT22;700;51.906;8.404;2023-04-15T16:33:22;12.90;99.90
1411;DHT22;700;51.906;8.404;2023-04-15T16:38:25;12.80;99.90
1411;DHT22;700;51.906;8.404;2023-04-15T16:43:26;12.90;99.90
1411;DHT22;700;51.906;8.404;2023-04-15T16:48:26;13.00;99.90
1411;DHT22;700;51.906;8.404;2023-04-15T16:53:27;12.90;99.90
1411;DHT22;700;51.906;8.404;2023-04-15T16:58:27;13.00;99.90
1411;DHT22;700;51.906;8.404;2023-04-15T17:03:33;12.90;99.90
1411;DHT22;700;51.906;8.404;2023-04-15T17:08:36;12.90;99.90
1411;DHT22;700;51.906;8.404;2023-04-15T17:13:37;13.00;99.90
1411;DHT22;700;51.906;8.404;2023-04-15T17:18:37;13.00;99.90
1411;DHT22;700;51.906;8.404;2023-04-15T17:23:40;13.00;99.90
1411;DHT22;700;51.906;8.404;2023-04-15T17:28:41;13.00;99.90
1411;DHT22;700;51.906;8.404;2023-04-15T17:33:45;12.90;99.90
1411;DHT22;700;51.906;8.404;2023-04-15T17:38:48;12.90;99.90
1411;DHT22;700;51.906;8.404;2023-04-15T17:43:49;12.80;99.90
1411;DHT22;700;51.906;8.404;2023-04-15T17:48:50;12.90;99.90
1411;DHT22;700;51.906;8.404;2023-04-15T17:53:53;12.90;99.90
1411;DHT22;700;51.906;8.404;2023-04-15T17:58:54;12.90;99.90
1411;DHT22;700;51.906;8.404;2023-04-15T18:03:54;13.00;99.90
1411;DHT22;700;51.906;8.404;2023-04-15T18:08:57;13.10;99.90
1411;DHT22;700;51.906;8.404;2023-04-15T18:13:58;13.20;99.90
1411;DHT22;700;51.906;8.404;2023-04-15T18:18:59;13.30;99.90
1411;DHT22;700;51.906;8.404;2023-04-15T18:24:01;13.20;99.90
1411;DHT22;700;51.906;8.404;2023-04-15T18:29:04;13.10;99.90
1411;DHT22;700;51.906;8.404;2023-04-15T18:34:05;12.90;99.90
1411;DHT22;700;51.906;8.404;2023-04-15T18:39:06;12.80;99.90
1411;DHT22;700;51.906;8.404;2023-04-15T18:44:07;12.80;99.90
1411;DHT22;700;51.906;8.404;2023-04-15T18:49:10;12.70;99.90
1411;DHT22;700;51.906;8.404;2023-04-15T18:54:10;12.70;99.90
1411;DHT22;700;51.906;8.404;2023-04-15T18:59:11;12.70;99.90
1411;DHT22;700;51.906;8.404;2023-04-15T19:04:12;12.80;99.90
1411;DHT22;700;51.906;8.404;2023-04-15T19:09:13;12.70;99.90
1411;DHT22;700;51.906;8.404;2023-04-15T19:14:14;12.70;99.90
1411;DHT22;700;51.906;8.404;2023-04-15T19:19:15;12.80;99.90
1411;DHT22;700;51.906;8.404;2023-04-15T19:24:18;12.80;99.90
1411;DHT22;700;51.906;8.404;2023-04-15T19:29:19;12.80;99.90
1411;DHT22;700;51.906;8.404;2023-04-15T19:34:20;12.80;99.90
1411;DHT22;700;51.906;8.404;2023-04-15T19:39:20;12.70;99.90
1411;DHT22;700;51.906;8.404;2023-04-15T19:44:23;12.60;99.90
1411;DHT22;700;51.906;8.404;2023-04-15T19:49:24;12.60;99.90
1411;DHT22;700;51.906;8.404;2023-04-15T19:54:25;12.50;99.90
1411;DHT22;700;51.906;8.404;2023-04-15T19:59:26;12.60;99.90
1411;DHT22;700;51.906;8.404;2023-04-15T20:04:27;12.50;99.90
1411;DHT22;700;51.906;8.404;2023-04-15T20:09:28;12.50;99.90
1411;DHT22;700;51.906;8.404;2023-04-15T20:14:33;12.50;99.90
1411;DHT22;700;51.906;8.404;2023-04-15T20:19:36;12.60;99.90
1411;DHT22;700;51.906;8.404;2023-04-15T20:24:36;12.60;99.90
1411;DHT22;700;51.906;8.404;2023-04-15T20:29:37;12.60;99.90
1411;DHT22;700;51.906;8.404;2023-04-15T20:34:40;12.70;99.90
1411;DHT22;700;51.906;8.404;2023-04-15T20:39:43;12.80;99.90
1411;DHT22;700;51.906;8.404;2023-04-15T20:44:44;12.70;99.90
1411;DHT22;700;51.906;8.404;2023-04-15T20:49:44;12.70;99.90
1411;DHT22;700;51.906;8.404;2023-04-15T20:54:47;12.60;99.90
1411;DHT22;700;51.906;8.404;2023-04-15T20:59:48;12.70;99.90
1411;DHT22;700;51.906;8.404;2023-04-15T21:04:51;12.80;99.90
1411;DHT22;700;51.906;8.404;2023-04-15T21:09:54;12.60;99.90
1411;DHT22;700;51.906;8.404;2023-04-15T21:14:55;12.60;99.90
1411;DHT22;700;51.906;8.404;2023-04-15T21:19:56;12.60;99.90
1411;DHT22;700;51.906;8.404;2023-04-15T21:24:59;12.50;99.90
1411;DHT22;700;51.906;8.404;2023-04-15T21:29:59;12.50;99.90
1411;DHT22;700;51.906;8.404;2023-04-15T21:35:00;12.50;99.90
1411;DHT22;700;51.906;8.404;2023-04-15T21:40:01;12.50;99.90
1411;DHT22;700;51.906;8.404;2023-04-15T21:45:04;12.40;99.90
1411;DHT22;700;51.906;8.404;2023-04-15T21:50:08;12.40;99.90
1411;DHT22;700;51.906;8.404;2023-04-15T21:55:08;12.50;99.90
1411;DHT22;700;51.906;8.404;2023-04-15T22:00:09;12.60;99.90
1411;DHT22;700;51.906;8.404;2023-04-15T22:05:10;12.60;99.90
1411;DHT22;700;51.906;8.404;2023-04-15T22:10:13;12.70;99.90
1411;DHT22;700;51.906;8.404;2023-04-15T22:15:16;12.80;99.90
1411;DHT22;700;51.906;8.404;2023-04-15T22:20:17;12.80;99.90
1411;DHT22;700;51.906;8.404;2023-04-15T22:25:18;12.90;99.90
1411;DHT22;700;51.906;8.404;2023-04-15T22:30:19;13.00;99.90
1411;DHT22;700;51.906;8.404;2023-04-15T22:35:22;13.10;99.90
1411;DHT22;700;51.906;8.404;2023-04-15T22:40:22;13.20;99.90
1411;DHT22;700;51.906;8.404;2023-04-15T22:45:25;13.30;99.90
1411;DHT22;700;51.906;8.404;2023-04-15T22:50:26;13.30;99.90
1411;DHT22;700;51.906;8.404;2023-04-15T22:55:26;13.30;99.90
1411;DHT22;700;51.906;8.404;2023-04-15T23:00:27;13.40;99.90
1411;DHT22;700;51.906;8.404;2023-04-15T23:05:28;13.40;99.90
1411;DHT22;700;51.906;8.404;2023-04-15T23:10:33;13.40;99.90
1411;DHT22;700;51.906;8.404;2023-04-15T23:15:36;13.40;99.90
1411;DHT22;700;51.906;8.404;2023-04-15T23:20:36;13.40;99.90
1411;DHT22;700;51.906;8.404;2023-04-15T23:25:37;13.30;99.90
1411;DHT22;700;51.906;8.404;2023-04-15T23:30:40;13.20;99.90
1411;DHT22;700;51.906;8.404;2023-04-15T23:35:43;13.20;99.90
1411;DHT22;700;51.906;8.404;2023-04-15T23:40:44;13.30;99.90
1411;DHT22;700;51.906;8.404;2023-04-15T23:45:44;13.20;99.90
1411;DHT22;700;51.906;8.404;2023-04-15T23:50:50;13.20;99.90
1411;DHT22;700;51.906;8.404;2023-04-15T23:55:50;13.10;99.90
